Time;durP1;ratioP1;P1;durP2;ratioP2;P2;SDS_P1;SDS_P2;PMS_P1;PMS_P2;Temp;Humidity;BMP_temperature;BMP_pressure;BME280_temperature;BME280_humidity;BME280_pressure;Samples;Min_cycle;Max_cycle;Signal;HPM_P1;HPM_P2
2021/01/22 00:04:21;;;;;;;12.40;9.07;;;;;;;;;;10320520;28;20068;-60
2021/01/22 00:09:19;;;;;;;13.75;10.10;;;;;;;;;;10320270;28;20068;-61
2021/01/22 00:14:16;;;;;;;69.72;27.00;;;;;;;;;;10319871;28;20075;-61
2021/01/22 00:19:14;;;;;;;9.65;8.10;;;;;;;;;;10319340;28;20075;-61
2021/01/22 00:24:12;;;;;;;8.25;7.20;;;;;;;;;;10319835;28;20064;-61
2021/01/22 00:29:09;;;;;;;11.70;7.15;;;;;;;;;;10318375;28;20072;-61
2021/01/22 00:34:06;;;;;;;9.40;7.63;;;;;;;;;;10318599;28;20079;-61
2021/01/22 00:39:05;;;;;;;7.95;5.85;;;;;;;;;;10329023;28;20076;-59
2021/01/22 00:44:03;;;;;;;18.23;13.15;;;;;;;;;;10317938;28;20072;-60
2021/01/22 00:49:00;;;;;;;16.83;12.80;;;;;;;;;;10329454;28;20135;-60
2021/01/22 00:54:00;;;;;;;8.95;7.60;;;;;;;;;;10338228;28;20509;-60
2021/01/22 00:59:06;;;;;;;7.97;6.82;;;;;;;;;;10336550;28;20075;-60
2021/01/22 01:04:06;;;;;;;8.23;6.22;;;;;;;;;;10337783;28;20083;-60
2021/01/22 01:09:20;;;;;;;10.32;7.88;;;;;;;;;;10338224;28;20048;-61
2021/01/22 01:14:39;;;;;;;8.23;6.35;;;;;;;;;;10336842;28;20084;-61
2021/01/22 01:19:36;;;;;;;7.72;6.10;;;;;;;;;;10336833;28;20082;-60
2021/01/22 01:24:34;;;;;;;9.70;6.70;;;;;;;;;;10336926;28;20068;-60
2021/01/22 01:29:32;;;;;;;8.30;6.68;;;;;;;;;;10336976;28;20071;-59
2021/01/22 01:34:30;;;;;;;6.57;5.80;;;;;;;;;;10335942;28;20068;-60
2021/01/22 01:39:27;;;;;;;7.95;6.15;;;;;;;;;;10338062;28;20072;-60
2021/01/22 01:44:24;;;;;;;8.35;6.57;;;;;;;;;;10336520;28;20154;-60
2021/01/22 01:49:22;;;;;;;8.13;6.40;;;;;;;;;;10334814;28;20072;-60
2021/01/22 01:54:21;;;;;;;7.28;6.25;;;;;;;;;;10337539;28;20064;-59
2021/01/22 01:59:18;;;;;;;8.88;7.43;;;;;;;;;;10335986;28;20082;-60
2021/01/22 02:04:15;;;;;;;8.88;6.80;;;;;;;;;;10335424;28;20573;-60
2021/01/22 02:09:13;;;;;;;9.00;6.78;;;;;;;;;;10336272;28;20098;-60
2021/01/22 02:14:12;;;;;;;9.25;7.22;;;;;;;;;;10335623;28;20536;-60
2021/01/22 02:19:10;;;;;;;10.77;9.07;;;;;;;;;;10335989;28;20083;-60
2021/01/22 02:24:09;;;;;;;9.07;7.10;;;;;;;;;;10334098;28;20040;-60
2021/01/22 02:29:07;;;;;;;10.93;7.07;;;;;;;;;;10336611;28;20071;-61
2021/01/22 02:34:07;;;;;;;8.98;7.30;;;;;;;;;;10334633;28;20074;-61
2021/01/22 02:39:05;;;;;;;9.45;7.47;;;;;;;;;;10333466;28;20070;-60
2021/01/22 02:44:03;;;;;;;10.15;7.85;;;;;;;;;;10334198;28;20083;-61
2021/01/22 02:49:02;;;;;;;8.18;7.22;;;;;;;;;;10336082;28;20064;-60
2021/01/22 02:53:59;;;;;;;11.30;7.32;;;;;;;;;;10332022;28;20196;-60
2021/01/22 02:58:58;;;;;;;8.27;6.97;;;;;;;;;;10335452;28;20480;-61
2021/01/22 03:03:59;;;;;;;8.90;5.53;;;;;;;;;;10342234;28;20098;-61
2021/01/22 03:08:59;;;;;;;7.78;6.47;;;;;;;;;;10343842;28;20083;-61
2021/01/22 03:13:58;;;;;;;8.05;5.82;;;;;;;;;;10342372;28;20071;-60
2021/01/22 03:18:58;;;;;;;8.60;5.97;;;;;;;;;;10343040;28;20094;-61
2021/01/22 03:23:56;;;;;;;7.32;6.05;;;;;;;;;;10342874;28;20076;-62
2021/01/22 03:28:54;;;;;;;8.75;7.88;;;;;;;;;;10341513;28;20075;-61
2021/01/22 03:33:52;;;;;;;8.75;7.25;;;;;;;;;;10342430;28;20068;-61
2021/01/22 03:38:49;;;;;;;9.73;7.68;;;;;;;;;;10341446;28;20068;-61
2021/01/22 03:43:46;;;;;;;8.82;7.43;;;;;;;;;;10340480;28;20083;-60
2021/01/22 03:48:45;;;;;;;9.10;7.68;;;;;;;;;;10342942;28;20103;-61
2021/01/22 03:53:43;;;;;;;9.15;7.63;;;;;;;;;;10338778;28;20098;-60
2021/01/22 03:58:40;;;;;;;7.63;6.50;;;;;;;;;;10341465;28;20138;-60
2021/01/22 04:03:37;;;;;;;8.65;7.45;;;;;;;;;;10340601;28;20455;-60
2021/01/22 04:08:36;;;;;;;18.80;13.60;;;;;;;;;;10340359;28;20075;-60
2021/01/22 04:13:34;;;;;;;580.10;295.20;;;;;;;;;;10340365;28;20071;-61
2021/01/22 04:18:32;;;;;;;489.27;211.93;;;;;;;;;;10340258;28;20091;-60
2021/01/22 04:23:29;;;;;;;439.35;177.10;;;;;;;;;;10340913;28;20055;-61
2021/01/22 04:28:28;;;;;;;326.80;120.22;;;;;;;;;;10339084;28;20091;-60
2021/01/22 04:33:25;;;;;;;183.60;81.47;;;;;;;;;;10340147;28;20075;-60
2021/01/22 04:38:23;;;;;;;238.10;104.80;;;;;;;;;;10337087;28;20489;-60
2021/01/22 04:43:20;;;;;;;218.13;96.53;;;;;;;;;;10337903;28;20364;-59
2021/01/22 04:48:18;;;;;;;125.88;58.05;;;;;;;;;;10337297;28;20473;-60
2021/01/22 04:53:16;;;;;;;59.05;32.72;;;;;;;;;;10339294;28;20083;-60
2021/01/22 04:58:15;;;;;;;41.00;25.73;;;;;;;;;;10339069;28;20067;-60
2021/01/22 05:03:12;;;;;;;266.60;114.25;;;;;;;;;;10337648;28;20064;-59
2021/01/22 05:08:11;;;;;;;146.23;60.83;;;;;;;;;;10339149;28;20067;-60
2021/01/22 05:13:09;;;;;;;81.45;39.67;;;;;;;;;;10335432;28;20083;-60
2021/01/22 05:18:08;;;;;;;106.88;54.13;;;;;;;;;;10339219;28;20091;-60
2021/01/22 05:23:06;;;;;;;161.70;70.93;;;;;;;;;;10336518;28;20079;-60
2021/01/22 05:28:04;;;;;;;118.38;57.00;;;;;;;;;;10334883;28;20075;-61
2021/01/22 05:33:15;;;;;;;90.40;48.33;;;;;;;;;;10338291;28;20072;-60
2021/01/22 05:38:12;;;;;;;52.22;31.55;;;;;;;;;;10336628;28;20174;-60
2021/01/22 05:43:11;;;;;;;44.83;26.77;;;;;;;;;;10337651;28;20504;-60
2021/01/22 05:48:21;;;;;;;48.47;29.67;;;;;;;;;;10336034;28;20036;-60
2021/01/22 05:53:19;;;;;;;34.35;21.33;;;;;;;;;;10335285;28;20094;-60
2021/01/22 05:58:29;;;;;;;20.05;13.63;;;;;;;;;;10336302;28;20071;-60
2021/01/22 06:03:26;;;;;;;21.40;13.60;;;;;;;;;;10316089;28;20454;-60
2021/01/22 06:08:24;;;;;;;14.30;10.95;;;;;;;;;;10334213;28;20071;-60
2021/01/22 06:13:24;;;;;;;13.35;9.70;;;;;;;;;;10336418;28;20068;-58
2021/01/22 06:18:28;;;;;;;11.98;9.95;;;;;;;;;;10334338;28;20084;-61
2021/01/22 06:23:27;;;;;;;34.17;16.58;;;;;;;;;;10333690;28;20068;-61
2021/01/22 06:28:25;;;;;;;10.82;7.65;;;;;;;;;;10334269;28;20454;-58
2021/01/22 06:33:24;;;;;;;26.83;12.05;;;;;;;;;;10336279;28;20091;-58
2021/01/22 06:38:22;;;;;;;26.73;13.38;;;;;;;;;;10333505;28;20075;-59
2021/01/22 06:43:19;;;;;;;29.58;15.18;;;;;;;;;;10335612;28;20079;-60
2021/01/22 06:48:17;;;;;;;23.02;12.63;;;;;;;;;;10334972;28;20084;-60
2021/01/22 06:53:15;;;;;;;26.77;13.60;;;;;;;;;;10334825;28;20075;-63
2021/01/22 06:58:25;;;;;;;30.88;14.68;;;;;;;;;;10335381;28;20079;-60
2021/01/22 07:03:41;;;;;;;39.05;19.77;;;;;;;;;;10333300;28;20493;-60
2021/01/22 07:08:55;;;;;;;38.88;22.92;;;;;;;;;;10335239;28;20068;-60
2021/01/22 07:14:00;;;;;;;35.88;20.40;;;;;;;;;;10334941;28;20080;-61
2021/01/22 07:24:42;;;;;;;76.30;45.47;;;;;;;;;;10329190;28;20472;-61
2021/01/22 07:30:09;;;;;;;63.47;29.45;;;;;;;;;;10333619;28;20080;-61
2021/01/22 07:35:09;;;;;;;61.45;32.45;;;;;;;;;;10332470;28;20079;-61
2021/01/22 07:40:08;;;;;;;47.60;29.63;;;;;;;;;;10332356;28;20449;-61
2021/01/22 07:45:07;;;;;;;25.77;15.50;;;;;;;;;;10332568;28;20473;-60
2021/01/22 07:50:06;;;;;;;33.55;16.63;;;;;;;;;;10339480;28;20460;-60
2021/01/22 07:55:04;;;;;;;25.08;13.40;;;;;;;;;;10341970;28;20077;-61
2021/01/22 08:00:07;;;;;;;27.83;15.82;;;;;;;;;;10339748;28;20078;-61
2021/01/22 08:05:08;;;;;;;32.88;18.65;;;;;;;;;;10347771;28;20457;-61
2021/01/22 08:10:07;;;;;;;28.23;15.63;;;;;;;;;;10335381;28;20466;-60
2021/01/22 08:15:15;;;;;;;29.90;17.08;;;;;;;;;;10339353;28;20118;-61
2021/01/22 08:20:13;;;;;;;26.45;13.43;;;;;;;;;;10338867;28;20075;-61
2021/01/22 08:25:10;;;;;;;41.90;19.83;;;;;;;;;;10339633;28;20051;-61
2021/01/22 08:30:09;;;;;;;26.63;13.25;;;;;;;;;;10338865;28;20068;-61
2021/01/22 08:35:10;;;;;;;32.92;13.23;;;;;;;;;;10338654;28;20079;-61
2021/01/22 08:40:09;;;;;;;36.33;21.05;;;;;;;;;;10338013;28;20328;-60
2021/01/22 08:45:11;;;;;;;34.72;17.90;;;;;;;;;;10338136;28;20071;-61
2021/01/22 08:50:16;;;;;;;29.90;15.73;;;;;;;;;;10337248;28;20497;-59
2021/01/22 08:55:20;;;;;;;33.05;17.80;;;;;;;;;;10318374;28;20080;-60
2021/01/22 09:00:24;;;;;;;30.38;15.93;;;;;;;;;;10317020;28;20072;-59
2021/01/22 09:05:23;;;;;;;30.55;16.67;;;;;;;;;;10317515;28;20519;-59
2021/01/22 09:10:27;;;;;;;40.35;22.77;;;;;;;;;;10317088;28;20087;-59
2021/01/22 09:15:24;;;;;;;26.75;15.00;;;;;;;;;;10317028;28;20450;-60
2021/01/22 09:20:27;;;;;;;42.22;23.30;;;;;;;;;;10317160;28;20105;-60
2021/01/22 09:25:26;;;;;;;74.70;42.67;;;;;;;;;;10320195;28;20071;-60
2021/01/22 09:30:24;;;;;;;53.03;30.65;;;;;;;;;;10338286;28;20076;-60
2021/01/22 09:35:23;;;;;;;49.58;28.50;;;;;;;;;;10335965;28;20560;-59
2021/01/22 09:40:21;;;;;;;32.17;20.77;;;;;;;;;;10334194;28;20070;-59
2021/01/22 09:45:19;;;;;;;35.50;22.52;;;;;;;;;;10332485;28;20509;-60
2021/01/22 09:50:17;;;;;;;34.95;24.63;;;;;;;;;;10331874;28;20068;-60
2021/01/22 09:55:17;;;;;;;32.10;21.85;;;;;;;;;;10333688;28;20070;-60
2021/01/22 10:00:16;;;;;;;37.30;23.05;;;;;;;;;;10335417;28;20064;-60
2021/01/22 10:05:14;;;;;;;40.65;26.77;;;;;;;;;;10335111;28;20044;-60
2021/01/22 10:10:12;;;;;;;42.88;28.95;;;;;;;;;;10334830;28;20068;-59
2021/01/22 10:15:10;;;;;;;20.73;14.52;;;;;;;;;;10336354;28;20528;-59
2021/01/22 10:20:09;;;;;;;78.50;48.97;;;;;;;;;;10334536;28;20083;-59
2021/01/22 10:30:47;;;;;;;104.70;55.45;;;;;;;;;;10310258;28;20535;-61
2021/01/22 10:35:46;;;;;;;108.38;67.40;;;;;;;;;;10331594;28;20084;-60
2021/01/22 10:40:44;;;;;;;81.18;43.05;;;;;;;;;;10335203;28;20079;-59
2021/01/22 10:45:41;;;;;;;89.72;47.42;;;;;;;;;;10333795;28;20067;-60
2021/01/22 10:50:50;;;;;;;;;;;;;;;;;;;;;
2021/01/22 10:55:51;;;;;;;150.90;77.22;;;;;;;;;;10328138;28;20533;-59
2021/01/22 11:00:48;;;;;;;94.95;56.08;;;;;;;;;;10333824;28;20071;-58
2021/01/22 11:05:50;;;;;;;120.13;74.70;;;;;;;;;;10333637;28;20076;-59
2021/01/22 11:10:47;;;;;;;150.27;95.55;;;;;;;;;;10333248;28;20463;-58
2021/01/22 11:15:45;;;;;;;47.10;25.55;;;;;;;;;;10335039;28;20080;-57
2021/01/22 11:20:43;;;;;;;84.80;41.70;;;;;;;;;;10333720;28;20079;-58
2021/01/22 11:25:40;;;;;;;127.95;85.07;;;;;;;;;;10342931;28;20084;-59
2021/01/22 11:30:37;;;;;;;110.20;77.32;;;;;;;;;;10342695;28;20071;-59
2021/01/22 11:35:36;;;;;;;118.10;80.13;;;;;;;;;;10341546;28;20513;-58
2021/01/22 11:40:33;;;;;;;126.85;95.85;;;;;;;;;;10342791;28;20075;-58
2021/01/22 11:45:30;;;;;;;138.65;88.97;;;;;;;;;;10340786;28;20067;-59
2021/01/22 11:50:28;;;;;;;109.50;76.93;;;;;;;;;;10340728;28;20063;-59
2021/01/22 11:55:26;;;;;;;115.57;79.47;;;;;;;;;;10342235;28;20075;-59
2021/01/22 12:00:24;;;;;;;106.32;69.78;;;;;;;;;;10340641;28;20445;-59
2021/01/22 12:05:23;;;;;;;125.28;87.63;;;;;;;;;;10341169;28;20068;-58
2021/01/22 12:10:20;;;;;;;142.95;96.63;;;;;;;;;;10340780;28;20072;-58
2021/01/22 12:15:19;;;;;;;131.85;87.10;;;;;;;;;;10340839;28;20080;-59
2021/01/22 12:20:17;;;;;;;135.35;95.78;;;;;;;;;;10341554;28;20088;-60
2021/01/22 12:25:14;;;;;;;104.03;68.25;;;;;;;;;;10339646;28;20072;-57
2021/01/22 12:30:12;;;;;;;118.80;72.22;;;;;;;;;;10341185;28;20076;-58
2021/01/22 12:35:11;;;;;;;136.25;84.63;;;;;;;;;;10337470;28;20094;-60
2021/01/22 12:40:09;;;;;;;113.40;69.85;;;;;;;;;;10338710;28;20068;-61
2021/01/22 12:45:07;;;;;;;107.15;68.93;;;;;;;;;;10339683;28;20068;-61
2021/01/22 12:50:05;;;;;;;101.93;69.63;;;;;;;;;;10337975;28;20067;-61
2021/01/22 12:55:05;;;;;;;120.60;74.72;;;;;;;;;;10334706;28;20095;-60
2021/01/22 13:00:03;;;;;;;113.80;75.25;;;;;;;;;;10337918;28;20476;-60
2021/01/22 13:05:01;;;;;;;104.85;76.55;;;;;;;;;;10339148;28;20094;-60
2021/01/22 13:09:59;;;;;;;127.43;92.55;;;;;;;;;;10347017;28;20313;-60
2021/01/22 13:14:58;;;;;;;81.82;54.47;;;;;;;;;;10339695;28;20068;-60
2021/01/22 13:19:55;;;;;;;93.95;66.43;;;;;;;;;;10337569;28;20075;-61
2021/01/22 13:24:52;;;;;;;115.55;74.53;;;;;;;;;;10337497;28;20064;-61
2021/01/22 13:29:50;;;;;;;143.30;97.78;;;;;;;;;;10338336;28;20068;-60
2021/01/22 13:34:48;;;;;;;95.80;61.22;;;;;;;;;;10335829;28;20076;-60
2021/01/22 13:39:45;;;;;;;216.15;126.95;;;;;;;;;;10316779;28;20479;-61
2021/01/22 13:44:43;;;;;;;57.38;34.25;;;;;;;;;;10316021;28;20052;-62
2021/01/22 13:49:40;;;;;;;32.90;20.63;;;;;;;;;;10315634;28;20072;-61
2021/01/22 13:54:38;;;;;;;43.75;24.55;;;;;;;;;;10316026;28;20079;-61
2021/01/22 13:59:35;;;;;;;54.42;32.08;;;;;;;;;;10316051;28;20076;-61
2021/01/22 14:04:33;;;;;;;147.82;105.68;;;;;;;;;;10315523;28;20060;-61
2021/01/22 14:09:30;;;;;;;72.88;44.33;;;;;;;;;;10315515;28;20075;-61
2021/01/22 14:14:28;;;;;;;133.48;91.72;;;;;;;;;;10326888;28;20072;-61
2021/01/22 14:19:26;;;;;;;149.63;103.60;;;;;;;;;;10336095;28;20098;-61
2021/01/22 14:24:23;;;;;;;99.22;63.13;;;;;;;;;;10333723;28;20075;-61
2021/01/22 14:29:21;;;;;;;100.70;49.10;;;;;;;;;;10336371;28;20140;-61
2021/01/22 14:34:19;;;;;;;95.88;49.05;;;;;;;;;;10334850;28;20070;-62
2021/01/22 14:39:16;;;;;;;26.02;15.80;;;;;;;;;;10334566;28;20064;-61
2021/01/22 14:44:14;;;;;;;126.78;94.65;;;;;;;;;;10335166;28;20071;-61
2021/01/22 14:49:11;;;;;;;299.75;170.57;;;;;;;;;;10334189;28;20076;-60
2021/01/22 14:54:10;;;;;;;225.30;131.57;;;;;;;;;;10335018;28;20072;-60
2021/01/22 14:59:11;;;;;;;155.05;92.95;;;;;;;;;;10333153;28;20076;-60
2021/01/22 15:04:09;;;;;;;223.07;117.13;;;;;;;;;;10335499;28;20064;-61
2021/01/22 15:09:06;;;;;;;116.68;60.13;;;;;;;;;;10333438;28;20067;-61
2021/01/22 15:14:05;;;;;;;321.83;170.23;;;;;;;;;;10335299;28;20072;-61
2021/01/22 15:19:02;;;;;;;125.80;63.58;;;;;;;;;;10333150;28;20092;-61
2021/01/22 15:23:59;;;;;;;98.30;54.38;;;;;;;;;;10326881;28;20481;-61
2021/01/22 15:28:56;;;;;;;87.93;47.65;;;;;;;;;;10329298;28;20075;-60
2021/01/22 15:33:55;;;;;;;165.48;90.25;;;;;;;;;;10330862;28;20500;-61
2021/01/22 15:39:07;;;;;;;66.90;40.50;;;;;;;;;;10329997;28;20498;-60
2021/01/22 15:44:05;;;;;;;208.68;124.80;;;;;;;;;;10331047;28;20060;-60
2021/01/22 15:49:03;;;;;;;153.05;88.97;;;;;;;;;;10334404;28;20505;-60
2021/01/22 15:54:00;;;;;;;57.30;32.47;;;;;;;;;;10333046;28;20068;-60
2021/01/22 15:58:58;;;;;;;41.70;26.15;;;;;;;;;;10333542;28;20071;-61
2021/01/22 16:03:55;;;;;;;41.03;21.92;;;;;;;;;;10333676;28;20068;-60
2021/01/22 16:08:54;;;;;;;63.42;38.15;;;;;;;;;;10334392;28;20619;-60
2021/01/22 16:13:51;;;;;;;102.35;61.65;;;;;;;;;;10339657;28;20068;-60
2021/01/22 16:18:48;;;;;;;185.75;104.75;;;;;;;;;;10340195;28;20076;-61
2021/01/22 16:23:46;;;;;;;96.43;51.83;;;;;;;;;;10338788;28;20468;-60
2021/01/22 16:28:44;;;;;;;110.78;59.67;;;;;;;;;;10334996;28;20076;-60
2021/01/22 16:33:42;;;;;;;44.95;26.95;;;;;;;;;;10338242;28;20071;-60
2021/01/22 16:38:40;;;;;;;36.28;21.20;;;;;;;;;;10338495;28;20568;-61
2021/01/22 16:43:37;;;;;;;28.95;17.50;;;;;;;;;;10340327;28;20072;-62
2021/01/22 16:48:35;;;;;;;19.88;13.50;;;;;;;;;;10337528;28;20083;-61
2021/01/22 16:53:33;;;;;;;15.52;10.88;;;;;;;;;;10335028;28;20064;-61
2021/01/22 16:58:30;;;;;;;45.30;27.90;;;;;;;;;;10339058;28;20109;-60
2021/01/22 17:03:27;;;;;;;66.68;40.65;;;;;;;;;;10338144;28;20064;-59
2021/01/22 17:08:26;;;;;;;32.72;21.10;;;;;;;;;;10338108;28;20068;-60
2021/01/22 17:13:23;;;;;;;16.98;11.27;;;;;;;;;;10338490;28;20070;-61
2021/01/22 17:18:20;;;;;;;42.13;17.08;;;;;;;;;;10334572;28;20568;-62
2021/01/22 17:23:18;;;;;;;22.98;17.08;;;;;;;;;;10336093;28;20063;-59
2021/01/22 17:28:16;;;;;;;22.08;14.80;;;;;;;;;;10336677;28;20068;-60
2021/01/22 17:33:13;;;;;;;21.20;12.98;;;;;;;;;;10329989;28;20066;-60
2021/01/22 17:38:11;;;;;;;29.08;17.23;;;;;;;;;;10333225;28;20067;-62
2021/01/22 17:43:11;;;;;;;27.38;16.63;;;;;;;;;;10331766;28;20060;-61
2021/01/22 17:48:10;;;;;;;29.42;16.83;;;;;;;;;;10314302;28;20064;-62
2021/01/22 17:53:07;;;;;;;20.58;15.32;;;;;;;;;;10314452;28;20068;-62
2021/01/22 17:58:04;;;;;;;17.60;12.20;;;;;;;;;;10328715;28;20067;-62
2021/01/22 18:03:02;;;;;;;14.25;9.52;;;;;;;;;;10334178;28;20072;-60
2021/01/22 18:08:02;;;;;;;11.63;8.40;;;;;;;;;;10330259;28;20071;-61
2021/01/22 18:12:59;;;;;;;13.07;9.40;;;;;;;;;;10334180;28;20076;-63
2021/01/22 18:17:56;;;;;;;11.05;8.18;;;;;;;;;;10330557;28;20086;-61
2021/01/22 18:22:54;;;;;;;11.18;9.35;;;;;;;;;;10335369;28;20067;-61
2021/01/22 18:27:52;;;;;;;17.15;11.95;;;;;;;;;;10330179;28;20471;-62
2021/01/22 18:32:49;;;;;;;10.00;8.40;;;;;;;;;;10332630;28;20504;-61
2021/01/22 18:37:47;;;;;;;16.50;11.30;;;;;;;;;;10333646;28;20072;-61
2021/01/22 18:42:44;;;;;;;10.57;6.95;;;;;;;;;;10331520;28;20071;-61
2021/01/22 18:47:43;;;;;;;17.10;7.97;;;;;;;;;;10329794;28;20063;-62
2021/01/22 18:52:41;;;;;;;15.15;10.82;;;;;;;;;;10332177;28;20547;-62
2021/01/22 18:57:38;;;;;;;11.68;10.27;;;;;;;;;;10331813;28;20060;-61
2021/01/22 19:02:35;;;;;;;9.95;8.18;;;;;;;;;;10332449;28;20068;-62
2021/01/22 19:07:34;;;;;;;20.08;14.90;;;;;;;;;;10332797;28;20090;-62
2021/01/22 19:12:36;;;;;;;10.48;7.40;;;;;;;;;;10333320;28;20083;-61
2021/01/22 19:17:33;;;;;;;45.17;33.25;;;;;;;;;;10321200;28;20151;-61
2021/01/22 19:22:31;;;;;;;16.88;13.82;;;;;;;;;;10330437;28;20060;-61
2021/01/22 19:27:29;;;;;;;11.98;7.53;;;;;;;;;;10327711;28;20083;-63
2021/01/22 19:32:27;;;;;;;61.00;31.60;;;;;;;;;;10328434;28;20060;-62
2021/01/22 19:37:25;;;;;;;25.73;16.92;;;;;;;;;;10331755;28;20079;-61
2021/01/22 19:42:26;;;;;;;54.60;37.42;;;;;;;;;;10331345;28;20068;-62
2021/01/22 19:47:24;;;;;;;32.65;21.45;;;;;;;;;;10338313;28;20075;-61
2021/01/22 19:52:21;;;;;;;36.45;23.55;;;;;;;;;;10331820;28;20068;-60
2021/01/22 19:57:19;;;;;;;352.45;284.58;;;;;;;;;;10337580;28;20072;-60
2021/01/22 20:02:16;;;;;;;14.73;12.35;;;;;;;;;;10335627;28;20078;-61
2021/01/22 20:07:15;;;;;;;17.88;12.43;;;;;;;;;;10339201;28;20182;-60
2021/01/22 20:12:12;;;;;;;12.55;9.52;;;;;;;;;;10334419;28;20067;-58
2021/01/22 20:17:09;;;;;;;12.88;10.90;;;;;;;;;;10329452;28;20147;-61
2021/01/22 20:22:07;;;;;;;10.55;8.50;;;;;;;;;;10329726;28;20478;-60
2021/01/22 20:27:05;;;;;;;14.85;10.88;;;;;;;;;;10332155;28;20160;-58
2021/01/22 20:32:03;;;;;;;18.77;13.30;;;;;;;;;;10327824;28;20076;-62
2021/01/22 20:37:00;;;;;;;13.80;9.50;;;;;;;;;;10328656;28;20127;-59
2021/01/22 20:41:58;;;;;;;29.70;17.90;;;;;;;;;;10335908;28;20068;-61
2021/01/22 20:46:56;;;;;;;22.00;14.15;;;;;;;;;;10321464;28;20167;-59
2021/01/22 20:51:54;;;;;;;25.42;16.70;;;;;;;;;;10331947;28;20083;-60
2021/01/22 20:56:51;;;;;;;21.33;14.10;;;;;;;;;;10327719;28;20084;-59
2021/01/22 21:01:49;;;;;;;15.63;10.70;;;;;;;;;;10329600;28;20067;-58
2021/01/22 21:06:47;;;;;;;12.82;9.88;;;;;;;;;;10322485;28;20152;-58
2021/01/22 21:11:50;;;;;;;16.33;10.38;;;;;;;;;;10333476;28;20099;-60
2021/01/22 21:16:48;;;;;;;129.60;108.90;;;;;;;;;;10335219;28;20079;-61
2021/01/22 21:21:45;;;;;;;10.15;7.80;;;;;;;;;;10332292;28;20078;-59
2021/01/22 21:26:43;;;;;;;10.02;8.45;;;;;;;;;;10329456;28;20076;-60
2021/01/22 21:31:41;;;;;;;10.20;6.15;;;;;;;;;;10325645;28;20489;-60
2021/01/22 21:36:38;;;;;;;8.20;6.93;;;;;;;;;;10332058;28;20084;-60
2021/01/22 21:41:35;;;;;;;8.88;7.20;;;;;;;;;;10327423;28;20070;-58
2021/01/22 21:46:35;;;;;;;9.18;7.18;;;;;;;;;;10329118;28;20083;-59
2021/01/22 21:51:33;;;;;;;9.07;6.97;;;;;;;;;;10317202;28;20166;-60
2021/01/22 21:56:30;;;;;;;10.48;8.82;;;;;;;;;;10331837;28;20083;-60
2021/01/22 22:01:27;;;;;;;14.65;10.68;;;;;;;;;;10319073;28;20119;-58
2021/01/22 22:06:26;;;;;;;11.68;10.18;;;;;;;;;;10322778;28;20068;-59
2021/01/22 22:11:23;;;;;;;8.60;7.05;;;;;;;;;;10331288;28;20068;-59
2021/01/22 22:16:20;;;;;;;8.75;7.85;;;;;;;;;;10334555;28;20067;-60
2021/01/22 22:21:18;;;;;;;13.00;9.93;;;;;;;;;;10326918;28;20485;-59
2021/01/22 22:26:17;;;;;;;13.60;10.05;;;;;;;;;;10324264;28;20143;-61
2021/01/22 22:31:14;;;;;;;11.70;8.60;;;;;;;;;;10332125;28;20064;-60
2021/01/22 22:36:11;;;;;;;12.52;9.75;;;;;;;;;;10329268;28;20072;-58
2021/01/22 22:41:09;;;;;;;8.85;7.82;;;;;;;;;;10325010;28;20071;-59
2021/01/22 22:46:07;;;;;;;11.23;8.13;;;;;;;;;;10325391;28;20068;-59
2021/01/22 22:51:05;;;;;;;8.88;7.07;;;;;;;;;;10326766;28;20059;-60
2021/01/22 22:56:02;;;;;;;12.30;8.20;;;;;;;;;;10330899;28;20068;-61
2021/01/22 23:00:59;;;;;;;9.55;7.03;;;;;;;;;;10325377;28;20063;-61
2021/01/22 23:05:58;;;;;;;7.75;5.88;;;;;;;;;;10315175;28;20091;-60
2021/01/22 23:10:56;;;;;;;6.93;5.50;;;;;;;;;;10340487;28;20157;-60
2021/01/22 23:15:53;;;;;;;6.68;5.53;;;;;;;;;;10324676;28;20076;-61
2021/01/22 23:20:50;;;;;;;8.10;6.57;;;;;;;;;;10338052;28;20091;-61
2021/01/22 23:25:49;;;;;;;17.00;10.55;;;;;;;;;;10329423;28;20071;-60
2021/01/22 23:30:46;;;;;;;9.88;7.82;;;;;;;;;;10325822;28;20083;-60
2021/01/22 23:35:44;;;;;;;10.82;8.57;;;;;;;;;;10334233;28;20222;-60
2021/01/22 23:40:41;;;;;;;17.92;11.23;;;;;;;;;;10332261;28;20484;-59
2021/01/22 23:45:39;;;;;;;24.02;14.90;;;;;;;;;;10332947;28;20072;-61
2021/01/22 23:50:37;;;;;;;18.85;10.00;;;;;;;;;;10336068;28;20075;-61
2021/01/22 23:55:34;;;;;;;13.23;8.75;;;;;;;;;;10337058;28;20568;-60
